Seoul E Air Base, South Korea

9:02 PM KST on September 02, 2014 (GMT +0900)
Seoul Air Base | Change Station
CLOSE
Current Station
Airport
Location: Seoul E AB,
Elevation: 66 ft
Nearby Weather Stations

Elev 66 ft 37.45 °N, 127.11 °E | Updated 1 hour ago

Light Rain
Light Rain
72 °F
Feels Like 72 °F
N
1
Wind Variable Wind from SE

Today
High -- | Low -- °F
--% Chance of Precip.
Yesterday
High -- | Low -- °F
Precip. -- in
6:02 AM 6:59 PM
Waxing Crescent, 51% visible
Pressure 29.83 in
Visibility 6.2 miles
Clouds Scattered Clouds 3000 ft
Overcast 10000 ft
Dew Point 68 °F
Humidity 88%
Rainfall 0.00 in
Snow Depth Not available.
UV 0 out of 12
Pollen Not available.
Air Quality Not available.
Flu Activity Not available.
METAR RKSM 021100Z 14001KT 9999 -RA SCT030 OVC100 22/20 A2983

More Conditions Fewer Conditions

Pressure 29.83 in
Visibility 6.2 miles
Clouds Scattered Clouds 3000 ft
Overcast 10000 ft
Dew Point 68 °F
Humidity 88%
Rainfall 0.00 in
Snow Depth Not available.
UV 0 out of 12
Pollen Not available.
Air Quality Not available.
Flu Activity Not available.
METAR RKSM 021100Z 14001KT 9999 -RA SCT030 OVC100 22/20 A2983

More Conditions Fewer Conditions

10-Day Weather Forecast

Almanac

Astronomy

Sep. 02, 2014 Rise Set
Actual Time 6:02 AM KST 6:59 PM KST
Civil Twilight 5:35 AM KST 7:26 PM KST
Nautical Twilight 5:03 AM KST 7:58 PM KST
Astronomical Twilight 4:30 AM KST 8:30 PM KST
Moon 1:02 PM KST 11:29 PM KST
Length of Visible Light 13h 50m
Length of Day
12h 57m
Tomorrow will be 2m 18s shorter.
Waxing Crescent, 51% of the Moon is Illuminated
Today
Waxing Crescent
Sep 8
Full
Sep 15
Last Quarter
Sep 24
New
Oct 1
First Quarter

Yesterday's Extremes

Country Highs Country Lows

Community

WunderPhotos

Upload Photos

1,749,622 photos uploaded!

WunderBlogs® & News

By Dr. Jeff Masters
Director of Meteorology, Weather Underground
By Kari Strenfel
Meteorologist, Weather Underground
By Christopher C. Burt
Weather Historian, Weather Underground
September 2, 2014
September 2, 2014
September 2, 2014

Nearby

Snow Depth

Not available.

Earthquake Activity

City Distance Mag. Time & Date
No recent earthquake activity has been reported nearby.
Minimum magnitude displayed is 2.5.

Coastal Water Temperatures

Place Temperature
No Stations Reporting

Nearby Weather Stations